TFM - Tactical Decision Aid
ID: Runway Winds: CIG/VIS Threshold:

KMDW - Chicago/Midway Intl, IL, US

Updated at: 0357 UTC 30 Jun 2022
Latest TAF at: 0232 UTC 30 Jun 2022

TAF Board

Time0353Z 30/04Z 30/05Z 30/06Z 30/07Z 30/08Z 30/09Z 30/10Z 30/11Z 30/12Z 30/13Z 30/14Z 30/15Z 30/16Z>>
Type OBS PRVL PRVL PRVL PRVL PRVL PRVL PRVL PRVL PRVL PRVL PRVL PRVL PRVL
VIS 10 >6 >6 >6 >6 >6 >6 >6 >6 >6 >6 >6 >6 >6
CIG -- -- -- -- -- -- -- -- -- -- -- -- -- --
Cover CLR SKC SKC SKC SKC SKC FEW FEW FEW FEW FEW FEW FEW FEW
FltCat VFR VFR VFR VFR VFR VFR VFR VFR VFR VFR VFR VFR VFR VFR
WX -- -- -- -- -- -- -- -- -- -- -- -- -- --
WDir 140 110 110 110 110 110 210 210 210 210 210 210 210 210
WSpd 3 7 7 7 7 7 8 8 8 8 8 8 13 13
WGst -- -- -- -- -- -- -- -- -- -- -- -- 24 24
WSHgt -- -- -- -- -- -- -- -- -- -- -- -- -- --
WSDir -- -- -- -- -- -- -- -- -- -- -- -- -- --
WSSpd -- -- -- -- -- -- -- -- -- -- -- -- -- --
R04/22
XWnd -3 -6 -6 -6 -6 -6 -2 -2 -2 -2 -2 -2 -3 -3
XGst -- -- -- -- -- -- -- -- -- -- -- -- -5 -5
HWnd -0 3 3 3 3 3 -8 -8 -8 -8 -8 -8 -13 -13
HGst -- -- -- -- -- -- -- -- -- -- -- -- -23 -23
R13/31
XWnd -0 3 3 3 3 3 -8 -8 -8 -8 -8 -8 -13 -13
XGst -- -- -- -- -- -- -- -- -- -- -- -- -23 -23
HWnd 3 6 6 6 6 6 2 2 2 2 2 2 3 3
HGst -- -- -- -- -- -- -- -- -- -- -- -- 6 6

TDA Impact Legend

  None Marginal Slight Moderate High
Visibility (sm) >5 2.9≤X≤5 0.9≤X<2.9 <0.9
Ceiling (100 ft) >30 9.9≤X≤30 4.9≤X<9.9 <4.9
Wind Speed (kt) <15 15≤X<25 25≤X<30 ≥30
Wind Gust (kt) <15 15≤X<25 25≤X<35 ≥35
Weather No Wx Reported VCTS -TS,-FZRA TS,FZRA +TS,+FZRA
TAF
KMDW 300232Z 3003/0106 11007KT P6SM SKC
  FM300900 21008KT P6SM FEW250
  FM301500 21013G24KT P6SM FEW250
  FM010300 21010KT P6SM FEW250


METAR
KMDW 300353Z 14003KT 10SM CLR 26/16 A3013 RMK AO2 SLP191 T02610156
KMDW 300253Z 13006KT 10SM CLR 26/16 A3013 RMK AO2 SLP192 T02560156 53006
KMDW 300153Z 09006KT 10SM CLR 26/16 A3012 RMK AO2 SLP188 T02610156
KMDW 300053Z 09007KT 10SM FEW065 27/15 A3011 RMK AO2 SLP185 T02720150

Radar Display
Forecast Discussion